Time;durP1;ratioP1;P1;durP2;ratioP2;P2;SDS_P1;SDS_P2;PMS_P1;PMS_P2;Temp;Humidity;BMP_temperature;BMP_pressure;BME280_temperature;BME280_humidity;BME280_pressure;Samples;Min_cycle;Max_cycle;Signal;HPM_P1;HPM_P2
2021/03/08 00:00:01;;;;;;;32.00;15.10;;;4.60;78.20;;;;;;5036959;28;20057;-82
2021/03/08 00:02:27;;;;;;;34.40;15.90;;;4.60;78.60;;;;;;5037476;28;20033;-83
2021/03/08 00:04:52;;;;;;;32.93;15.90;;;4.50;78.60;;;;;;5037148;28;20053;-83
2021/03/08 00:07:18;;;;;;;31.17;16.50;;;4.50;78.80;;;;;;5035207;28;20514;-83
2021/03/08 00:09:43;;;;;;;32.37;16.13;;;4.60;79.40;;;;;;5033421;28;20029;-83
2021/03/08 00:12:09;;;;;;;28.40;14.83;;;4.50;78.70;;;;;;5033922;28;20059;-83
2021/03/08 00:14:35;;;;;;;36.87;16.57;;;4.50;78.70;;;;;;5035339;28;20367;-83
2021/03/08 00:17:02;;;;;;;30.00;15.57;;;4.50;78.70;;;;;;5057718;22;20065;-85
2021/03/08 00:19:28;;;;;;;33.23;15.93;;;4.50;79.00;;;;;;5033849;28;20359;-84
2021/03/08 00:21:54;;;;;;;29.87;16.00;;;4.50;79.00;;;;;;5034608;28;20120;-84
2021/03/08 00:24:19;;;;;;;30.33;15.43;;;4.50;79.10;;;;;;5035546;28;20033;-84
2021/03/08 00:26:45;;;;;;;30.10;15.70;;;4.50;79.10;;;;;;5034079;28;20064;-84
2021/03/08 00:29:11;;;;;;;33.37;16.10;;;4.50;79.30;;;;;;5035027;28;20052;-84
2021/03/08 00:31:36;;;;;;;32.50;16.17;;;4.60;79.50;;;;;;5035588;28;20034;-85
2021/03/08 00:34:02;;;;;;;31.57;14.90;;;4.60;79.60;;;;;;5034152;28;20034;-84
2021/03/08 00:36:28;;;;;;;31.60;16.07;;;4.60;79.50;;;;;;5035117;28;20022;-84
2021/03/08 00:38:53;;;;;;;32.77;16.97;;;4.60;79.70;;;;;;5033582;28;20523;-84
2021/03/08 00:41:19;;;;;;;33.67;17.00;;;4.60;79.80;;;;;;5033844;28;20025;-84
2021/03/08 00:43:45;;;;;;;33.67;16.30;;;4.60;80.10;;;;;;5035145;28;20037;-84
2021/03/08 00:46:10;;;;;;;36.43;16.87;;;4.60;80.20;;;;;;5033727;28;20025;-84
2021/03/08 00:48:36;;;;;;;30.43;16.00;;;4.60;80.30;;;;;;5033698;28;20120;-84
2021/03/08 00:51:09;;;;;;;33.40;17.07;;;4.50;80.20;;;;;;5033465;28;20037;-85
2021/03/08 00:53:34;;;;;;;33.67;17.30;;;4.60;80.30;;;;;;5035172;28;20036;-84
2021/03/08 00:56:00;;;;;;;32.63;17.13;;;4.50;80.50;;;;;;5034282;28;20021;-84
2021/03/08 00:58:25;;;;;;;34.67;17.03;;;4.60;80.60;;;;;;5033612;28;20072;-84
2021/03/08 01:00:51;;;;;;;34.47;17.20;;;4.60;80.60;;;;;;5034259;28;20039;-85
2021/03/08 01:03:17;;;;;;;32.40;16.47;;;4.60;80.60;;;;;;5032560;28;20400;-85
2021/03/08 01:05:42;;;;;;;36.90;17.47;;;4.60;80.70;;;;;;5033077;28;20057;-85
2021/03/08 01:08:09;;;;;;;34.80;17.17;;;4.60;80.80;;;;;;5034701;28;20029;-85
2021/03/08 01:10:34;;;;;;;37.87;18.10;;;4.60;81.60;;;;;;5034164;28;20040;-86
2021/03/08 01:13:00;;;;;;;38.50;18.23;;;4.60;81.10;;;;;;5035934;28;20056;-85
2021/03/08 01:15:26;;;;;;;34.63;17.97;;;4.60;81.30;;;;;;5034748;28;20029;-85
2021/03/08 01:17:51;;;;;;;37.90;18.37;;;4.60;82.10;;;;;;5035754;28;20048;-86
2021/03/08 01:20:19;;;;;;;37.80;18.00;;;4.50;81.30;;;;;;5034328;28;20060;-86
2021/03/08 01:22:45;;;;;;;35.37;18.00;;;4.50;81.50;;;;;;5035835;28;20061;-86
2021/03/08 01:25:17;;;;;;;34.00;18.20;;;4.50;82.20;;;;;;5034795;28;20032;-85
2021/03/08 01:27:43;;;;;;;34.60;17.77;;;4.50;81.60;;;;;;5036315;28;20025;-86
2021/03/08 01:30:14;;;;;;;35.33;17.97;;;4.50;81.50;;;;;;5034289;28;20032;-86
2021/03/08 01:32:40;;;;;;;37.93;17.73;;;4.50;81.60;;;;;;5035744;28;20025;-86
2021/03/08 01:35:07;;;;;;;34.80;17.17;;;4.50;81.70;;;;;;5035909;28;20044;-86
2021/03/08 01:37:32;;;;;;;37.30;18.03;;;4.50;81.70;;;;;;5034327;28;20409;-86
2021/03/08 01:39:59;;;;;;;42.87;19.60;;;4.60;82.10;;;;;;5035060;28;20104;-85
2021/03/08 01:42:25;;;;;;;37.30;18.30;;;4.50;81.90;;;;;;5035249;28;20037;-85
2021/03/08 01:44:51;;;;;;;38.07;19.03;;;4.50;82.20;;;;;;5035362;28;20033;-85
2021/03/08 01:47:17;;;;;;;38.63;18.60;;;4.50;82.30;;;;;;5034196;28;20044;-85
2021/03/08 01:49:43;;;;;;;38.87;19.43;;;4.50;82.30;;;;;;5034054;28;20029;-86
2021/03/08 01:52:12;;;;;;;41.33;20.10;;;4.50;82.20;;;;;;5034438;28;20036;-87
2021/03/08 01:54:38;;;;;;;36.72;18.17;;;4.40;82.50;;;;;;5035497;28;20108;-86
2021/03/08 01:57:05;;;;;;;41.93;20.53;;;4.50;82.70;;;;;;5035179;28;20552;-87
2021/03/08 01:59:31;;;;;;;38.70;19.13;;;4.40;82.90;;;;;;5034982;28;20474;-85
2021/03/08 02:01:58;;;;;;;43.83;19.73;;;4.50;83.00;;;;;;5034001;28;20045;-86
2021/03/08 02:04:24;;;;;;;38.27;18.07;;;4.40;83.00;;;;;;5033999;28;20428;-86
2021/03/08 02:06:50;;;;;;;38.30;18.47;;;4.40;83.30;;;;;;5036196;28;20031;-85
2021/03/08 02:09:16;;;;;;;39.50;19.57;;;4.40;83.40;;;;;;5032161;28;20021;-85
2021/03/08 02:11:49;;;;;;;38.83;19.13;;;4.40;84.20;;;;;;5033803;28;20025;-85
2021/03/08 02:14:33;;;;;;;40.03;19.37;;;4.40;83.50;;;;;;5031842;28;20080;-86
2021/03/08 02:17:17;;;;;;;40.47;19.27;;;4.40;83.70;;;;;;5033557;28;20098;-85
2021/03/08 02:20:13;;;;;;;41.20;18.57;;;4.30;83.90;;;;;;5032144;28;20044;-86
2021/03/08 02:23:15;;;;;;;46.17;21.80;;;4.40;84.10;;;;;;5033865;28;20022;-85
2021/03/08 02:25:55;;;;;;;44.70;20.63;;;4.30;84.20;;;;;;5032548;28;20378;-85
2021/03/08 02:28:46;;;;;;;36.90;18.03;;;4.30;84.20;;;;;;5032341;28;20030;-86
2021/03/08 02:31:15;;;;;;;41.67;19.67;;;4.30;84.60;;;;;;5031094;28;20028;-86
2021/03/08 02:33:46;;;;;;;39.17;19.40;;;4.30;84.60;;;;;;5032045;28;20484;-85
2021/03/08 02:36:13;;;;;;;40.23;19.43;;;4.40;84.90;;;;;;5034425;28;20061;-85
2021/03/08 02:38:44;;;;;;;41.87;19.53;;;4.40;85.60;;;;;;5032662;28;20033;-85
2021/03/08 02:41:20;;;;;;;42.97;19.50;;;4.40;84.80;;;;;;5033418;28;20037;-85
2021/03/08 02:44:00;;;;;;;43.70;19.53;;;4.40;85.20;;;;;;5034252;28;20034;-86
2021/03/08 02:46:36;;;;;;;;;;;4.30;84.80;;;;;;5033814;28;20025;-86
2021/03/08 02:49:09;;;;;;;41.80;19.23;;;4.40;85.00;;;;;;5032290;28;19943;-86
2021/03/08 02:51:42;;;;;;;40.70;19.87;;;4.30;84.80;;;;;;5032415;28;20456;-85
2021/03/08 02:54:09;;;;;;;40.27;20.10;;;4.30;84.90;;;;;;5033366;28;20028;-84
2021/03/08 02:56:37;;;;;;;42.73;20.10;;;4.30;85.20;;;;;;5035195;28;20367;-84
2021/03/08 02:59:05;;;;;;;41.57;19.57;;;4.30;85.30;;;;;;5033206;28;20392;-85
2021/03/08 03:01:33;;;;;;;38.17;19.73;;;4.30;85.30;;;;;;5035578;28;20083;-85
2021/03/08 03:04:01;;;;;;;39.27;19.53;;;4.40;85.10;;;;;;5035231;28;20467;-85
2021/03/08 03:06:33;;;;;;;39.63;19.50;;;4.40;84.90;;;;;;5034082;28;20033;-85
2021/03/08 03:09:04;;;;;;;44.37;21.37;;;4.40;85.10;;;;;;5030972;28;20064;-85
2021/03/08 03:11:32;;;;;;;41.37;20.23;;;4.30;85.10;;;;;;5031215;28;20110;-84
2021/03/08 03:13:59;;;;;;;46.10;22.70;;;4.30;85.10;;;;;;5032600;28;20029;-85
2021/03/08 03:16:27;;;;;;;44.40;21.07;;;4.30;85.30;;;;;;5034331;28;20087;-84
2021/03/08 03:18:56;;;;;;;49.47;21.30;;;4.30;85.40;;;;;;5032687;28;20033;-84
2021/03/08 03:21:30;;;;;;;44.13;21.97;;;4.30;85.70;;;;;;5032786;28;20032;-84
2021/03/08 03:23:57;;;;;;;46.33;21.43;;;4.20;85.90;;;;;;5034424;28;20026;-85
2021/03/08 03:26:24;;;;;;;45.20;20.97;;;4.20;86.50;;;;;;5033369;28;20401;-84
2021/03/08 03:28:50;;;;;;;46.27;20.77;;;4.20;86.30;;;;;;5037613;28;20033;-85
2021/03/08 03:31:18;;;;;;;41.47;20.97;;;4.20;86.50;;;;;;5036373;28;20105;-84
2021/03/08 03:33:45;;;;;;;43.30;21.10;;;4.20;86.00;;;;;;5036593;28;20544;-84
2021/03/08 03:36:11;;;;;;;43.67;20.27;;;4.10;86.40;;;;;;5038503;28;20033;-85
2021/03/08 03:38:39;;;;;;;44.77;20.77;;;4.20;86.30;;;;;;5037622;28;20390;-85
2021/03/08 03:41:05;;;;;;;49.30;20.87;;;4.20;86.50;;;;;;5037669;28;20075;-84
2021/03/08 03:43:31;;;;;;;48.63;21.17;;;4.20;86.40;;;;;;5038433;28;20025;-84
2021/03/08 03:46:04;;;;;;;45.43;20.90;;;4.20;86.40;;;;;;5036541;28;20026;-84
2021/03/08 03:48:31;;;;;;;41.70;20.50;;;4.20;86.50;;;;;;5036933;28;20041;-84
2021/03/08 03:50:57;;;;;;;43.47;21.17;;;4.20;86.60;;;;;;5037766;28;20076;-85
2021/03/08 03:53:23;;;;;;;48.67;22.47;;;4.20;86.50;;;;;;5036330;28;20417;-84
2021/03/08 03:55:49;;;;;;;44.13;21.63;;;4.20;86.50;;;;;;5036294;28;20389;-84
2021/03/08 03:58:25;;;;;;;44.50;21.37;;;4.10;86.80;;;;;;5035794;28;20554;-84
2021/03/08 04:01:04;;;;;;;40.33;20.33;;;4.10;87.10;;;;;;5035576;28;20440;-84
2021/03/08 04:03:37;;;;;;;43.90;20.77;;;4.10;87.30;;;;;;5037717;28;20056;-85
2021/03/08 04:06:06;;;;;;;52.10;21.80;;;4.10;87.10;;;;;;5036346;28;20072;-84
2021/03/08 04:08:32;;;;;;;46.90;21.57;;;4.10;87.40;;;;;;5035824;28;20181;-84
2021/03/08 04:11:01;;;;;;;47.00;20.90;;;4.10;87.60;;;;;;5034913;28;20025;-85
2021/03/08 04:13:31;;;;;;;44.72;21.55;;;4.10;87.40;;;;;;5035058;28;20022;-84
2021/03/08 04:15:58;;;;;;;44.40;21.77;;;4.10;87.60;;;;;;5036363;28;20393;-85
2021/03/08 04:18:25;;;;;;;43.87;21.20;;;4.20;87.50;;;;;;5035107;28;20113;-84
2021/03/08 04:20:58;;;;;;;51.57;22.27;;;4.20;87.60;;;;;;5034480;28;20022;-84
2021/03/08 04:23:25;;;;;;;46.10;20.73;;;4.10;87.40;;;;;;5035023;28;20032;-84
2021/03/08 04:25:51;;;;;;;46.63;22.30;;;4.20;87.40;;;;;;5035771;28;20470;-84
2021/03/08 04:28:17;;;;;;;47.67;21.77;;;4.10;88.30;;;;;;5036073;28;20036;-84
2021/03/08 04:30:45;;;;;;;45.07;21.40;;;4.00;88.20;;;;;;5034248;28;20329;-85
2021/03/08 04:33:12;;;;;;;49.50;22.40;;;4.10;88.30;;;;;;5036339;28;20075;-84
2021/03/08 04:35:39;;;;;;;44.50;22.43;;;4.10;88.10;;;;;;5035267;28;20029;-84
2021/03/08 04:38:06;;;;;;;45.73;21.50;;;4.00;88.40;;;;;;5033768;28;20032;-84
2021/03/08 04:40:33;;;;;;;46.53;22.33;;;4.00;89.00;;;;;;5034063;28;20478;-85
2021/03/08 04:43:02;;;;;;;54.70;23.57;;;4.00;88.60;;;;;;5037810;28;20025;-85
2021/03/08 04:45:28;;;;;;;46.47;21.73;;;4.10;88.70;;;;;;5036079;28;20470;-85
2021/03/08 04:47:54;;;;;;;49.47;22.53;;;4.00;88.60;;;;;;5033655;28;20037;-84
2021/03/08 04:50:21;;;;;;;45.63;22.73;;;3.90;89.20;;;;;;5034613;28;20048;-85
2021/03/08 04:52:50;;;;;;;48.73;22.07;;;3.90;89.40;;;;;;5033848;28;20124;-84
2021/03/08 04:55:17;;;;;;;43.42;20.85;;;4.00;89.30;;;;;;5033491;28;20048;-85
2021/03/08 04:57:43;;;;;;;48.80;22.27;;;4.00;89.10;;;;;;5033451;28;20391;-84
2021/03/08 05:00:11;;;;;;;48.97;22.27;;;4.00;89.20;;;;;;5033296;28;20159;-84
2021/03/08 05:02:38;;;;;;;46.97;21.63;;;4.00;89.00;;;;;;5033410;28;20047;-84
2021/03/08 05:05:06;;;;;;;48.23;23.00;;;4.00;89.30;;;;;;5033376;28;20063;-84
2021/03/08 05:07:35;;;;;;;48.20;22.57;;;4.00;89.30;;;;;;5034224;28;20033;-84
2021/03/08 05:10:01;;;;;;;;;;;4.10;89.30;;;;;;5033414;28;20063;-84
2021/03/08 05:12:29;;;;;;;50.17;22.67;;;4.00;89.50;;;;;;5033531;28;19944;-85
2021/03/08 05:14:57;;;;;;;47.57;21.83;;;4.00;89.50;;;;;;5033498;28;20033;-86
2021/03/08 05:17:24;;;;;;;47.67;22.00;;;4.00;89.50;;;;;;5033503;28;20040;-84
2021/03/08 05:19:50;;;;;;;46.10;22.67;;;4.10;89.50;;;;;;5033276;28;20021;-85
2021/03/08 05:22:17;;;;;;;47.97;23.37;;;4.00;89.40;;;;;;5033466;28;20446;-85
2021/03/08 05:24:48;;;;;;;48.53;24.10;;;4.00;89.80;;;;;;5036510;28;20018;-85
2021/03/08 05:27:15;;;;;;;50.50;23.13;;;4.00;89.80;;;;;;5036135;28;20033;-84
2021/03/08 05:29:42;;;;;;;42.90;21.27;;;4.00;89.60;;;;;;5033771;28;20025;-85
2021/03/08 05:32:15;;;;;;;51.07;23.37;;;4.10;89.50;;;;;;5033857;28;20490;-85
2021/03/08 05:34:46;;;;;;;50.50;24.23;;;4.00;90.20;;;;;;5034084;28;20018;-84
2021/03/08 05:37:17;;;;;;;56.90;24.80;;;4.10;89.80;;;;;;5034791;28;20022;-85
2021/03/08 05:39:43;;;;;;;53.40;23.87;;;4.00;90.00;;;;;;5033765;28;20030;-85
2021/03/08 05:42:10;;;;;;;55.43;24.10;;;4.00;90.10;;;;;;5037176;28;20100;-85
2021/03/08 05:44:45;;;;;;;55.83;24.00;;;4.10;89.80;;;;;;5035462;28;20026;-84
2021/03/08 05:47:39;;;;;;;51.37;23.70;;;4.00;89.90;;;;;;5033945;28;20497;-84
2021/03/08 05:51:02;;;;;;;53.03;24.53;;;4.00;90.00;;;;;;5034338;28;20032;-84
2021/03/08 05:54:08;;;;;;;53.97;23.33;;;4.00;90.10;;;;;;4996584;28;20549;-86
2021/03/08 05:56:45;;;;;;;46.93;23.33;;;4.10;90.10;;;;;;5013447;28;20517;-84
2021/03/08 05:59:53;;;;;;;47.20;22.93;;;4.10;90.00;;;;;;5031835;28;20033;-85
2021/03/08 06:02:52;;;;;;;53.30;24.97;;;4.10;90.20;;;;;;5036159;28;20082;-85
2021/03/08 06:05:43;;;;;;;54.43;24.13;;;4.10;90.10;;;;;;5034835;28;20080;-84
2021/03/08 06:08:08;;;;;;;51.97;24.67;;;4.10;90.20;;;;;;5033301;28;20025;-85
2021/03/08 06:10:36;;;;;;;56.17;25.17;;;4.10;90.10;;;;;;5032715;28;20074;-84
2021/03/08 06:13:09;;;;;;;47.87;23.53;;;4.10;90.00;;;;;;5032105;28;20021;-84
2021/03/08 06:15:37;;;;;;;53.70;23.47;;;4.10;90.10;;;;;;5033047;28;20117;-84
2021/03/08 06:18:09;;;;;;;56.00;25.03;;;4.10;90.40;;;;;;5055284;22;20175;-86
2021/03/08 06:20:36;;;;;;;55.10;25.07;;;4.10;90.20;;;;;;5032527;28;20025;-86
2021/03/08 06:23:02;;;;;;;57.93;25.80;;;4.00;90.20;;;;;;5031567;28;20036;-87
2021/03/08 06:25:29;;;;;;;58.30;26.13;;;4.10;90.40;;;;;;5032996;28;20032;-87
2021/03/08 06:27:55;;;;;;;60.33;24.83;;;4.00;90.40;;;;;;5031676;28;20076;-87
2021/03/08 06:30:23;;;;;;;59.50;26.13;;;4.10;90.30;;;;;;5033322;28;20028;-86
2021/03/08 06:32:50;;;;;;;56.13;25.40;;;4.10;90.30;;;;;;5032052;28;20109;-86
2021/03/08 06:35:16;;;;;;;56.43;26.90;;;4.10;90.40;;;;;;5031938;28;20060;-87
2021/03/08 06:37:42;;;;;;;56.90;25.93;;;4.10;90.30;;;;;;5031699;28;20045;-87
2021/03/08 06:40:09;;;;;;;58.37;26.10;;;4.10;90.60;;;;;;5031121;28;20167;-86
2021/03/08 06:42:36;;;;;;;57.67;25.67;;;4.10;90.30;;;;;;5031352;28;20048;-87
2021/03/08 06:45:01;;;;;;;54.90;27.20;;;4.10;90.30;;;;;;5031151;28;20025;-86
2021/03/08 06:47:27;;;;;;;60.23;27.20;;;4.10;90.30;;;;;;5032196;28;20022;-87
2021/03/08 06:49:55;;;;;;;67.93;28.60;;;4.20;90.30;;;;;;5032010;28;20025;-86
2021/03/08 06:52:22;;;;;;;63.23;27.00;;;4.10;90.30;;;;;;5030985;28;20032;-86
2021/03/08 06:55:03;;;;;;;61.17;26.43;;;4.20;90.30;;;;;;5032321;28;20160;-86
2021/03/08 06:57:36;;;;;;;62.57;26.27;;;4.10;90.40;;;;;;5030881;28;20022;-87
2021/03/08 07:00:02;;;;;;;60.23;27.27;;;4.10;90.40;;;;;;5030765;28;20079;-86
2021/03/08 07:02:57;;;;;;;61.77;26.70;;;4.10;90.40;;;;;;5030478;28;20025;-86
2021/03/08 07:05:22;;;;;;;60.80;26.97;;;4.10;90.50;;;;;;5027796;28;20409;-87
2021/03/08 07:07:48;;;;;;;59.63;26.13;;;4.10;90.60;;;;;;5032112;28;20022;-86
2021/03/08 07:10:15;;;;;;;56.27;25.80;;;4.10;90.50;;;;;;5031541;28;20031;-87
2021/03/08 07:12:52;;;;;;;61.13;27.97;;;4.00;90.70;;;;;;5031202;28;20033;-87
2021/03/08 07:15:18;;;;;;;65.83;27.97;;;4.10;90.70;;;;;;5031018;28;20486;-86
2021/03/08 07:17:43;;;;;;;64.67;27.63;;;4.10;90.90;;;;;;5030763;28;20037;-87
2021/03/08 07:20:18;;;;;;;57.13;26.17;;;4.10;90.70;;;;;;5030553;28;20061;-86
2021/03/08 07:22:50;;;;;;;60.73;26.90;;;4.10;90.70;;;;;;5033695;28;20101;-87
2021/03/08 07:25:28;;;;;;;56.47;27.00;;;4.20;90.60;;;;;;5033148;28;20029;-86
2021/03/08 07:27:58;;;;;;;63.90;28.00;;;4.20;90.70;;;;;;5035179;28;20051;-86
2021/03/08 07:30:52;;;;;;;60.63;27.93;;;4.30;90.90;;;;;;5031570;28;20117;-87
2021/03/08 07:33:18;;;;;;;56.50;26.80;;;4.30;90.80;;;;;;5030178;28;20028;-86
2021/03/08 07:35:45;;;;;;;66.57;28.53;;;4.30;90.90;;;;;;5034336;28;20075;-86
2021/03/08 07:38:30;;;;;;;62.47;29.20;;;4.40;91.10;;;;;;5032717;28;20033;-87
2021/03/08 07:41:14;;;;;;;62.07;27.10;;;4.40;91.10;;;;;;5032217;28;20026;-86
2021/03/08 07:43:40;;;;;;;63.03;29.00;;;4.40;91.10;;;;;;5032841;28;20055;-86
2021/03/08 07:46:25;;;;;;;55.53;26.63;;;4.40;91.40;;;;;;5031334;28;20033;-86
2021/03/08 07:48:50;;;;;;;59.00;27.50;;;4.40;91.60;;;;;;5031696;28;20108;-86
2021/03/08 07:51:16;;;;;;;54.40;26.10;;;4.40;91.90;;;;;;5030410;28;20546;-86
2021/03/08 07:53:41;;;;;;;57.03;28.10;;;4.40;92.10;;;;;;5031972;28;20053;-86
2021/03/08 07:56:09;;;;;;;66.77;29.03;;;4.30;92.60;;;;;;5031577;28;20060;-87
2021/03/08 07:58:37;;;;;;;62.73;28.27;;;4.30;93.10;;;;;;5031789;28;20036;-86
2021/03/08 08:01:08;;;;;;;61.37;28.40;;;4.30;93.20;;;;;;5030173;28;20025;-86
2021/03/08 08:03:37;;;;;;;71.53;30.97;;;4.30;93.30;;;;;;5030353;28;20441;-87
2021/03/08 08:06:05;;;;;;;62.27;29.33;;;4.30;94.00;;;;;;5030244;28;20056;-86
2021/03/08 08:08:33;;;;;;;65.67;29.80;;;4.30;94.00;;;;;;5030344;28;20033;-86
2021/03/08 08:11:01;;;;;;;69.87;30.53;;;4.30;93.90;;;;;;5029814;28;20079;-86
2021/03/08 08:13:35;;;;;;;69.13;31.77;;;4.30;93.60;;;;;;5032960;28;20152;-86
2021/03/08 08:16:07;;;;;;;70.20;31.67;;;4.30;93.80;;;;;;5034049;28;20116;-87
2021/03/08 08:18:44;;;;;;;71.73;32.27;;;4.20;93.90;;;;;;5034554;28;20060;-86
2021/03/08 08:21:20;;;;;;;72.77;33.13;;;4.20;94.20;;;;;;5033522;28;20534;-87
2021/03/08 08:23:55;;;;;;;73.83;33.40;;;4.30;94.50;;;;;;5034200;28;20033;-87
2021/03/08 08:26:21;;;;;;;77.63;33.23;;;4.30;94.60;;;;;;5033768;28;20026;-87
2021/03/08 08:28:48;;;;;;;71.27;32.37;;;4.20;94.60;;;;;;5033664;28;20116;-88
2021/03/08 08:31:13;;;;;;;71.90;32.70;;;4.20;94.40;;;;;;5033351;28;20108;-87
2021/03/08 08:33:39;;;;;;;73.90;33.27;;;4.20;95.10;;;;;;5033685;28;20520;-87
2021/03/08 08:36:27;;;;;;;74.10;32.90;;;4.30;95.40;;;;;;5034776;28;20036;-86
2021/03/08 08:38:53;;;;;;;80.10;34.97;;;4.30;94.70;;;;;;5033316;28;20175;-87
2021/03/08 08:41:20;;;;;;;75.03;33.47;;;4.40;94.60;;;;;;5034881;28;20061;-87
2021/03/08 08:43:47;;;;;;;70.53;32.27;;;4.30;94.50;;;;;;5033386;28;20041;-87
2021/03/08 08:46:23;;;;;;;71.13;31.33;;;4.30;95.00;;;;;;5033374;28;20418;-86
2021/03/08 08:49:16;;;;;;;72.60;33.33;;;4.40;95.10;;;;;;5033304;28;20116;-86
2021/03/08 08:51:49;;;;;;;74.03;31.80;;;4.40;95.20;;;;;;5033467;28;20037;-87
2021/03/08 08:54:27;;;;;;;78.77;33.60;;;4.40;95.60;;;;;;5033150;28;20037;-86
2021/03/08 08:57:07;;;;;;;76.00;33.03;;;4.40;95.30;;;;;;5034426;28;20396;-86
2021/03/08 08:59:34;;;;;;;70.32;30.50;;;4.40;95.20;;;;;;5034153;28;20059;-86
2021/03/08 09:02:18;;;;;;;73.97;32.23;;;4.40;95.30;;;;;;5033101;28;20391;-87
2021/03/08 09:04:45;;;;;;;72.20;31.57;;;4.40;95.50;;;;;;5032946;28;20401;-87
2021/03/08 09:07:27;;;;;;;70.70;30.47;;;4.40;95.80;;;;;;5034030;28;20108;-86
2021/03/08 09:09:57;;;;;;;69.47;31.57;;;4.40;95.70;;;;;;5032595;28;20040;-86
2021/03/08 09:12:31;;;;;;;72.80;31.13;;;4.40;95.80;;;;;;5032961;28;20482;-86
2021/03/08 09:15:04;;;;;;;74.50;33.80;;;4.50;95.60;;;;;;5032979;28;20466;-86
2021/03/08 09:17:31;;;;;;;75.20;31.47;;;4.50;95.60;;;;;;5032679;28;20474;-87
2021/03/08 09:19:57;;;;;;;75.37;32.37;;;4.50;96.00;;;;;;5032575;28;20490;-86
2021/03/08 09:22:26;;;;;;;79.03;33.17;;;4.40;95.60;;;;;;5032726;28;20026;-87
2021/03/08 09:24:54;;;;;;;71.35;31.70;;;4.50;95.80;;;;;;5032744;28;20032;-86
2021/03/08 09:27:23;;;;;;;74.03;32.10;;;4.50;96.00;;;;;;5032775;28;20029;-86
2021/03/08 09:29:49;;;;;;;74.83;33.13;;;4.60;96.00;;;;;;5033438;28;20017;-87
2021/03/08 09:32:15;;;;;;;74.07;32.53;;;4.60;96.30;;;;;;5033165;28;20270;-87
2021/03/08 09:34:41;;;;;;;83.80;34.17;;;4.60;96.30;;;;;;5032960;28;20025;-87
2021/03/08 09:37:07;;;;;;;76.33;33.63;;;4.50;96.00;;;;;;5032435;28;20026;-87
2021/03/08 09:39:46;;;;;;;82.60;34.00;;;4.50;96.20;;;;;;5032752;28;20034;-86
2021/03/08 09:42:12;;;;;;;80.00;33.38;;;4.50;96.10;;;;;;5033469;28;20032;-86
2021/03/08 09:44:42;;;;;;;74.70;33.20;;;4.60;95.90;;;;;;5032527;28;20033;-87
2021/03/08 09:47:08;;;;;;;72.53;32.73;;;4.60;95.50;;;;;;5032407;28;20029;-86
2021/03/08 09:49:53;;;;;;;78.70;34.07;;;4.60;94.70;;;;;;5031935;28;20437;-87
2021/03/08 09:52:38;;;;;;;75.10;32.73;;;4.70;94.50;;;;;;5032293;28;20537;-86
2021/03/08 09:55:09;;;;;;;74.73;33.33;;;4.70;94.40;;;;;;5032406;28;20482;-86
2021/03/08 09:57:40;;;;;;;70.40;33.10;;;4.70;94.20;;;;;;5033598;28;20060;-87
2021/03/08 10:00:07;;;;;;;81.27;33.97;;;4.80;94.40;;;;;;5031917;28;20100;-86
2021/03/08 10:02:34;;;;;;;77.47;33.73;;;4.80;94.50;;;;;;5033549;28;20028;-86
2021/03/08 10:05:00;;;;;;;79.17;33.50;;;4.80;94.30;;;;;;5032165;28;20428;-86
2021/03/08 10:07:27;;;;;;;70.90;32.57;;;4.80;94.30;;;;;;5032526;28;20021;-86
2021/03/08 10:10:14;;;;;;;79.77;35.13;;;4.80;94.20;;;;;;5032296;28;20428;-87
2021/03/08 10:12:41;;;;;;;81.10;33.77;;;4.80;93.80;;;;;;5033581;28;20096;-87
2021/03/08 10:15:08;;;;;;;74.77;32.53;;;4.80;93.70;;;;;;5031962;28;20029;-86
2021/03/08 10:17:35;;;;;;;81.87;33.80;;;4.80;93.50;;;;;;5033198;28;20120;-86
2021/03/08 10:20:05;;;;;;;81.63;34.57;;;4.70;93.70;;;;;;5031852;28;20017;-87
2021/03/08 10:22:34;;;;;;;;;;;4.70;94.10;;;;;;5032667;28;20113;-86
2021/03/08 10:25:01;;;;;;;79.32;32.47;;;4.80;94.00;;;;;;5032560;28;19932;-86
2021/03/08 10:27:29;;;;;;;93.07;37.77;;;4.80;94.20;;;;;;5032048;28;20042;-86
2021/03/08 10:29:55;;;;;;;99.67;38.73;;;4.80;93.80;;;;;;5032677;28;20040;-87
2021/03/08 10:32:21;;;;;;;83.40;36.97;;;4.80;94.00;;;;;;5031747;28;20025;-86
2021/03/08 10:34:48;;;;;;;95.40;38.20;;;4.90;94.10;;;;;;5032168;28;20095;-87
2021/03/08 10:37:18;;;;;;;88.53;36.10;;;4.90;93.90;;;;;;5032037;28;20262;-87
2021/03/08 10:39:48;;;;;;;90.30;36.50;;;4.90;94.00;;;;;;5031615;28;20030;-87
2021/03/08 10:42:19;;;;;;;89.90;37.17;;;4.90;94.20;;;;;;5031700;28;20132;-87
2021/03/08 10:44:44;;;;;;;96.07;38.90;;;5.00;94.20;;;;;;5034883;28;20034;-86
2021/03/08 10:47:14;;;;;;;128.13;49.83;;;5.00;94.10;;;;;;5031015;28;20037;-87
2021/03/08 10:49:59;;;;;;;113.07;44.63;;;5.00;93.90;;;;;;5031981;28;20030;-86
2021/03/08 10:52:25;;;;;;;127.97;48.07;;;5.00;94.00;;;;;;5031277;28;20021;-86
2021/03/08 10:54:51;;;;;;;112.10;45.13;;;5.10;93.80;;;;;;5032664;28;20441;-86
2021/03/08 10:57:17;;;;;;;126.43;47.13;;;5.20;93.80;;;;;;5032265;28;20029;-86
2021/03/08 10:59:50;;;;;;;131.83;47.33;;;5.20;93.80;;;;;;5030429;28;20039;-87
2021/03/08 11:02:17;;;;;;;127.43;46.77;;;5.20;93.40;;;;;;5031182;28;20116;-86
2021/03/08 11:04:52;;;;;;;111.83;45.00;;;5.10;93.60;;;;;;5030960;28;20033;-86
2021/03/08 11:07:33;;;;;;;121.17;46.27;;;5.20;93.50;;;;;;5030877;28;20034;-86
2021/03/08 11:09:58;;;;;;;110.57;43.13;;;5.20;93.70;;;;;;5030385;28;20474;-86
2021/03/08 11:12:24;;;;;;;105.90;42.10;;;5.20;93.80;;;;;;5031159;28;20037;-86
2021/03/08 11:14:51;;;;;;;118.07;45.73;;;5.20;93.70;;;;;;5030960;28;20022;-86
2021/03/08 11:17:28;;;;;;;123.23;46.23;;;5.10;93.90;;;;;;5032109;28;20060;-86
2021/03/08 11:20:25;;;;;;;132.30;48.03;;;5.20;94.10;;;;;;5035368;28;20097;-86
2021/03/08 11:22:59;;;;;;;125.90;45.60;;;5.20;93.70;;;;;;5027500;28;20041;-86
2021/03/08 11:25:32;;;;;;;118.33;46.60;;;5.20;93.70;;;;;;5035986;28;20025;-86
2021/03/08 11:27:59;;;;;;;107.43;41.13;;;5.30;93.50;;;;;;5036708;28;20021;-86
2021/03/08 11:30:26;;;;;;;102.60;40.60;;;5.30;93.30;;;;;;5035506;28;20441;-86
2021/03/08 11:32:58;;;;;;;95.87;39.63;;;5.20;93.40;;;;;;5031314;28;20022;-86
2021/03/08 11:35:32;;;;;;;108.70;42.70;;;5.30;93.40;;;;;;5038640;28;20032;-87
2021/03/08 11:38:06;;;;;;;123.87;47.10;;;5.30;93.80;;;;;;5037772;28;20029;-87
2021/03/08 11:40:33;;;;;;;129.20;49.87;;;5.40;93.50;;;;;;5035446;28;20026;-87
2021/03/08 11:42:59;;;;;;;113.47;44.43;;;5.40;93.40;;;;;;5036463;28;20487;-87
2021/03/08 11:45:26;;;;;;;129.70;50.77;;;5.40;93.20;;;;;;5036348;28;20049;-87
2021/03/08 11:47:54;;;;;;;126.07;50.47;;;5.50;93.00;;;;;;5039575;28;20025;-87
2021/03/08 11:50:21;;;;;;;125.63;48.33;;;5.50;93.30;;;;;;5041608;28;20031;-87
2021/03/08 11:52:47;;;;;;;119.17;48.47;;;5.40;93.10;;;;;;5041808;28;20017;-87
2021/03/08 11:55:13;;;;;;;150.33;61.13;;;5.50;93.10;;;;;;5040164;28;20193;-85
2021/03/08 11:57:42;;;;;;;145.80;55.47;;;5.50;92.90;;;;;;5039995;28;20108;-86
2021/03/08 12:00:08;;;;;;;151.70;56.90;;;5.40;93.10;;;;;;5039728;28;20021;-87
2021/03/08 12:02:34;;;;;;;128.27;50.33;;;5.40;93.20;;;;;;5040573;28;20330;-87
2021/03/08 12:04:59;;;;;;;131.97;50.43;;;5.50;93.00;;;;;;5040889;28;20021;-86
2021/03/08 12:07:25;;;;;;;110.73;44.93;;;5.40;92.90;;;;;;5040016;28;20210;-86
2021/03/08 12:09:51;;;;;;;130.40;52.93;;;5.40;93.20;;;;;;5039923;28;20056;-86
2021/03/08 12:12:17;;;;;;;123.70;50.77;;;5.40;93.30;;;;;;5037743;28;20029;-87
2021/03/08 12:14:42;;;;;;;135.53;51.77;;;5.40;93.00;;;;;;5036415;28;20414;-85
2021/03/08 12:17:08;;;;;;;114.23;47.20;;;5.40;93.00;;;;;;5035315;28;20056;-85
2021/03/08 12:19:34;;;;;;;130.07;50.93;;;5.50;92.90;;;;;;5044288;28;20036;-86
2021/03/08 12:21:59;;;;;;;122.47;52.00;;;5.50;92.80;;;;;;5042856;28;20095;-86
2021/03/08 12:24:25;;;;;;;113.10;48.23;;;5.50;92.80;;;;;;5039097;28;20030;-85
2021/03/08 12:26:51;;;;;;;110.13;46.53;;;5.50;92.40;;;;;;5039249;28;20061;-85
2021/03/08 12:29:16;;;;;;;98.33;44.63;;;5.50;92.50;;;;;;5035734;28;20026;-85
2021/03/08 12:31:42;;;;;;;105.97;44.70;;;5.50;92.60;;;;;;5035131;28;20100;-86
2021/03/08 12:34:08;;;;;;;116.30;50.27;;;5.50;92.50;;;;;;5034846;28;20029;-85
2021/03/08 12:36:40;;;;;;;120.50;52.53;;;5.50;92.20;;;;;;5035507;28;20040;-86
2021/03/08 12:39:06;;;;;;;117.73;53.50;;;5.50;92.40;;;;;;5035086;28;20029;-86
2021/03/08 12:41:32;;;;;;;114.00;49.67;;;5.50;92.20;;;;;;5035721;28;20389;-86
2021/03/08 12:43:57;;;;;;;94.33;41.97;;;5.50;92.30;;;;;;5034501;28;20026;-86
2021/03/08 12:46:24;;;;;;;96.40;42.97;;;5.50;92.20;;;;;;5034606;28;20402;-87
2021/03/08 12:48:51;;;;;;;101.63;46.43;;;5.60;92.10;;;;;;5035580;28;20494;-85